aviador You're here:

KLEW Decoded Metar

AUBURN/LEWISTON in ME, USA
Report Time2018-05-20 18:56:00
UTC Time2018-05-20 19:24:37
Flight Rules vfr VFR
Wind270° at 12 Gusting to 18 kt
W.Decomp.*RWY 35: 5.4 kt HW 10.7 kt LCW
RWY 22: 4.7 kt HW 11.0 kt RCW
W.Rank270° ranks 26
Current wind is above 270° avg. (6.4)
Visibility9999 m
Phenomena:N/A
Clouds:Scattered 041 Hf
Broken 070 Hf
Expected CloudBase > 3,200 ft AGL from Temp-Dew spread
Ceiling7,000 ft
Temp23°C (ISA +9)
Dew Point15°C (61% RH)
AAT20.3°C
QNH1009 hPa
Density Alt1,650 ft
Elevation289 ft
Report Wrong Elevation
Raw Report
KLEW 201856Z AUTO 27012G18KT 10SM SCT041 BKN070 23/15 A2980 RMK
AO2 SLP105 T02330150=

Extra information for KLEW:More info

Metar Taf Metar & Taf Last 4 Metars F.Rules Stats Wind Profile Meteogram Temp Stats Airport Information Weather charts Add Link Nearby VenuesMetar ALERT Operation Metar Decoded Social comments

AIRNAV info for KLEW